Time;durP1;ratioP1;P1;durP2;ratioP2;P2;SDS_P1;SDS_P2;PMS_P1;PMS_P2;Temp;Humidity;BMP_temperature;BMP_pressure;BME280_temperature;BME280_humidity;BME280_pressure;Samples;Min_cycle;Max_cycle;Signal;HPM_P1;HPM_P2
2021/12/18 00:03:03;;;;;;;29.83;12.20;;;;;;;;;;6219101;23;20195;-91
2021/12/18 00:06:10;;;;;;;34.60;13.27;;;;;;;;;;6217883;23;20244;-85
2021/12/18 00:09:16;;;;;;;33.80;12.60;;;;;;;;;;6218054;23;20183;-91
2021/12/18 00:12:21;;;;;;;33.80;13.07;;;;;;;;;;6219815;23;20167;-88
2021/12/18 00:15:30;;;;;;;36.57;12.63;;;;;;;;;;6218939;23;20496;-90
2021/12/18 00:18:35;;;;;;;33.57;13.53;;;;;;;;;;6219677;23;20191;-90
2021/12/18 00:21:46;;;;;;;35.53;12.50;;;;;;;;;;6221603;23;20156;-89
2021/12/18 00:28:11;;;;;;;36.87;13.27;;;;;;;;;;6217458;23;20179;-91
2021/12/18 00:31:16;;;;;;;35.73;13.00;;;;;;;;;;6218489;23;20218;-90
2021/12/18 00:34:21;;;;;;;44.53;14.80;;;;;;;;;;6217153;23;20179;-90
2021/12/18 00:37:28;;;;;;;33.23;12.73;;;;;;;;;;6214389;23;20171;-89
2021/12/18 00:40:44;;;;;;;33.13;12.13;;;;;;;;;;6218051;23;20154;-91
2021/12/18 00:44:05;;;;;;;31.37;13.00;;;;;;;;;;6218367;23;20219;-89
2021/12/18 00:47:10;;;;;;;31.97;13.27;;;;;;;;;;6217593;23;20195;-91
2021/12/18 00:50:24;;;;;;;35.80;13.10;;;;;;;;;;6217642;23;20164;-91
2021/12/18 00:53:31;;;;;;;30.13;11.20;;;;;;;;;;6219532;23;20166;-90
2021/12/18 00:56:38;;;;;;;32.87;12.63;;;;;;;;;;6218582;23;20155;-89
2021/12/18 00:59:44;;;;;;;36.67;14.10;;;;;;;;;;6218743;23;20213;-90
2021/12/18 01:02:52;;;;;;;35.90;14.33;;;;;;;;;;6219803;23;20174;-91
2021/12/18 01:05:59;;;;;;;36.73;13.23;;;;;;;;;;6217124;23;20170;-90
2021/12/18 01:09:06;;;;;;;36.80;13.63;;;;;;;;;;6218296;23;20168;-88
2021/12/18 01:12:15;;;;;;;41.60;14.37;;;;;;;;;;6218721;23;20170;-91
2021/12/18 01:15:27;;;;;;;32.03;13.27;;;;;;;;;;6215317;23;20211;-91
2021/12/18 01:25:26;;;;;;;34.87;12.87;;;;;;;;;;6217331;23;20187;-91
2021/12/18 01:28:32;;;;;;;35.00;14.13;;;;;;;;;;6217137;23;20170;-90
2021/12/18 01:31:37;;;;;;;36.40;13.27;;;;;;;;;;6217517;23;20166;-90
2021/12/18 01:34:43;;;;;;;34.77;13.77;;;;;;;;;;6217577;23;20204;-90
2021/12/18 01:37:49;;;;;;;36.97;13.17;;;;;;;;;;6217407;23;20175;-90
2021/12/18 01:40:56;;;;;;;33.77;13.40;;;;;;;;;;6216938;23;20155;-91
2021/12/18 01:51:18;;;;;;;37.80;14.43;;;;;;;;;;6215685;23;20151;-89
2021/12/18 05:13:53;;;;;;;28.17;11.80;;;;;;;;;;6232433;23;20191;-88
2021/12/18 05:16:58;;;;;;;28.67;11.30;;;;;;;;;;6216085;23;20159;-91
2021/12/18 05:20:03;;;;;;;30.73;12.27;;;;;;;;;;6216246;23;20170;-90
2021/12/18 05:23:08;;;;;;;31.67;11.37;;;;;;;;;;6216973;23;20207;-91
2021/12/18 05:26:14;;;;;;;25.10;10.87;;;;;;;;;;6215198;23;20171;-89
2021/12/18 05:29:21;;;;;;;28.27;11.43;;;;;;;;;;6215172;23;20176;-90
2021/12/18 05:32:26;;;;;;;26.03;11.10;;;;;;;;;;6215689;23;20171;-91
2021/12/18 05:35:31;;;;;;;24.63;10.73;;;;;;;;;;6217561;23;20163;-90
2021/12/18 05:38:37;;;;;;;29.30;11.93;;;;;;;;;;6218982;23;20235;-91
2021/12/18 05:41:42;;;;;;;24.10;10.67;;;;;;;;;;6218902;23;20167;-90
2021/12/18 05:44:51;;;;;;;21.87;9.70;;;;;;;;;;6218084;23;20259;-90
2021/12/18 05:47:56;;;;;;;24.37;9.47;;;;;;;;;;6218809;23;20202;-89
2021/12/18 05:51:05;;;;;;;21.77;9.87;;;;;;;;;;6218797;23;20233;-88
2021/12/18 05:54:10;;;;;;;18.60;8.27;;;;;;;;;;6215743;23;20174;-90
2021/12/18 05:57:16;;;;;;;21.33;9.00;;;;;;;;;;6214929;23;20194;-87
2021/12/18 06:00:23;;;;;;;19.20;9.13;;;;;;;;;;6215470;23;20164;-90
2021/12/18 06:03:29;;;;;;;19.37;8.73;;;;;;;;;;6213591;23;20167;-91
2021/12/18 06:06:34;;;;;;;21.33;9.17;;;;;;;;;;6214037;23;20167;-89
2021/12/18 06:09:39;;;;;;;21.57;8.77;;;;;;;;;;6213051;23;20163;-88
2021/12/18 06:12:45;;;;;;;17.30;8.33;;;;;;;;;;6213339;23;20277;-91
2021/12/18 06:15:52;;;;;;;24.47;9.93;;;;;;;;;;6215655;23;20151;-91
2021/12/18 06:18:58;;;;;;;18.87;9.17;;;;;;;;;;6212882;23;20310;-90
2021/12/18 06:22:03;;;;;;;22.40;9.90;;;;;;;;;;6213490;23;20163;-88
2021/12/18 06:25:09;;;;;;;24.73;10.70;;;;;;;;;;6214305;23;20690;-89
2021/12/18 06:28:14;;;;;;;25.30;10.63;;;;;;;;;;6214814;23;20361;-89
2021/12/18 06:31:20;;;;;;;25.43;10.67;;;;;;;;;;6213914;23;20167;-90
2021/12/18 06:34:25;;;;;;;22.87;9.97;;;;;;;;;;6217257;23;20171;-90
2021/12/18 06:37:31;;;;;;;25.00;11.40;;;;;;;;;;6213256;23;20171;-91
2021/12/18 06:40:37;;;;;;;33.03;11.57;;;;;;;;;;6214215;23;20163;-88
2021/12/18 06:43:48;;;;;;;23.03;10.40;;;;;;;;;;6213936;23;20170;-90
2021/12/18 06:46:56;;;;;;;25.73;11.50;;;;;;;;;;6216144;23;20187;-91
2021/12/18 06:50:01;;;;;;;29.93;12.50;;;;;;;;;;6214639;23;20167;-90
2021/12/18 06:53:07;;;;;;;31.17;13.07;;;;;;;;;;6213858;23;20170;-88
2021/12/18 06:56:13;;;;;;;27.43;11.57;;;;;;;;;;6212410;23;20154;-91
2021/12/18 06:59:18;;;;;;;30.20;11.93;;;;;;;;;;6216135;23;20199;-89
2021/12/18 07:02:24;;;;;;;33.37;12.70;;;;;;;;;;6216066;23;20219;-92
2021/12/18 07:08:48;;;;;;;31.10;12.67;;;;;;;;;;6220387;23;20230;-89
2021/12/18 07:11:53;;;;;;;29.17;12.10;;;;;;;;;;6215389;23;20249;-91
2021/12/18 07:14:59;;;;;;;26.73;12.33;;;;;;;;;;6216976;23;20151;-88
2021/12/18 07:18:05;;;;;;;37.10;12.80;;;;;;;;;;6213891;23;20275;-89
2021/12/18 07:21:12;;;;;;;29.30;12.73;;;;;;;;;;6213111;23;20171;-88
2021/12/18 07:24:17;;;;;;;29.70;12.17;;;;;;;;;;6214411;23;20151;-89
2021/12/18 07:27:22;;;;;;;27.23;11.27;;;;;;;;;;6215390;23;20195;-90
2021/12/18 07:30:28;;;;;;;29.37;12.37;;;;;;;;;;6215800;23;20364;-90
2021/12/18 07:33:37;;;;;;;29.37;12.57;;;;;;;;;;6217667;23;20167;-89
2021/12/18 07:36:42;;;;;;;33.90;14.07;;;;;;;;;;6216066;23;20163;-88
2021/12/18 07:39:47;;;;;;;32.33;13.30;;;;;;;;;;6217275;23;20183;-89
2021/12/18 07:42:52;;;;;;;35.67;14.37;;;;;;;;;;6215381;23;20167;-90
2021/12/18 07:45:57;;;;;;;29.03;12.77;;;;;;;;;;6213835;23;20175;-89
2021/12/18 07:49:04;;;;;;;35.43;13.20;;;;;;;;;;6214699;23;20183;-89
2021/12/18 07:52:12;;;;;;;30.30;12.30;;;;;;;;;;6212650;23;20269;-91
2021/12/18 07:55:17;;;;;;;37.67;15.10;;;;;;;;;;6212153;23;20279;-89
2021/12/18 07:58:23;;;;;;;27.80;12.47;;;;;;;;;;6213116;23;20204;-90
2021/12/18 08:01:28;;;;;;;36.17;14.53;;;;;;;;;;6213219;23;20167;-90
2021/12/18 08:04:34;;;;;;;35.53;13.30;;;;;;;;;;6214444;23;20167;-90
2021/12/18 08:07:40;;;;;;;33.30;12.93;;;;;;;;;;6215656;23;20195;-90
2021/12/18 08:10:46;;;;;;;39.13;17.33;;;;;;;;;;6215414;23;20158;-90
2021/12/18 08:13:52;;;;;;;39.43;13.23;;;;;;;;;;6214608;23;20218;-90
2021/12/18 08:16:57;;;;;;;26.60;11.53;;;;;;;;;;6213743;23;20240;-89
2021/12/18 08:20:04;;;;;;;28.67;12.60;;;;;;;;;;6214621;23;20163;-89
2021/12/18 08:23:10;;;;;;;32.43;11.73;;;;;;;;;;6215312;23;20694;-90
2021/12/18 08:26:15;;;;;;;23.90;10.90;;;;;;;;;;6215532;23;20171;-91
2021/12/18 08:29:20;;;;;;;28.13;12.00;;;;;;;;;;6216960;23;20186;-89
2021/12/18 08:32:26;;;;;;;23.63;10.77;;;;;;;;;;6216552;23;20167;-91
2021/12/18 08:35:34;;;;;;;29.33;11.90;;;;;;;;;;6213388;23;20179;-89
2021/12/18 08:38:40;;;;;;;23.77;10.60;;;;;;;;;;6214124;23;20203;-90
2021/12/18 08:41:46;;;;;;;27.43;11.50;;;;;;;;;;6214726;23;20167;-90
2021/12/18 08:44:51;;;;;;;28.17;11.50;;;;;;;;;;6214490;23;20199;-90
2021/12/18 08:47:57;;;;;;;25.87;11.40;;;;;;;;;;6216553;23;20234;-90
2021/12/18 08:51:12;;;;;;;25.10;11.13;;;;;;;;;;6214298;23;20171;-91
2021/12/18 08:54:17;;;;;;;23.27;10.90;;;;;;;;;;6216485;23;20172;-91
2021/12/18 08:57:24;;;;;;;26.93;11.57;;;;;;;;;;6216745;23;20190;-90
2021/12/18 09:00:31;;;;;;;31.67;13.27;;;;;;;;;;6216168;23;20183;-90
2021/12/18 09:03:36;;;;;;;27.97;12.33;;;;;;;;;;6218332;23;20260;-92
2021/12/18 09:06:43;;;;;;;34.70;14.13;;;;;;;;;;6216266;23;20219;-88
2021/12/18 09:09:48;;;;;;;26.13;12.33;;;;;;;;;;6215238;23;20156;-88
2021/12/18 09:12:53;;;;;;;32.77;12.43;;;;;;;;;;6213698;23;20255;-90
2021/12/18 09:15:59;;;;;;;37.33;12.33;;;;;;;;;;6214055;23;20178;-91
2021/12/18 09:19:04;;;;;;;26.70;11.80;;;;;;;;;;6213898;23;20170;-89
2021/12/18 09:22:11;;;;;;;27.27;11.70;;;;;;;;;;6216177;23;20195;-89
2021/12/18 09:25:17;;;;;;;27.73;12.10;;;;;;;;;;6215276;23;20163;-89
2021/12/18 09:28:22;;;;;;;30.43;13.57;;;;;;;;;;6215183;23;20203;-91
2021/12/18 09:31:35;;;;;;;29.30;12.30;;;;;;;;;;6215624;23;20183;-89
2021/12/18 09:34:40;;;;;;;29.43;12.80;;;;;;;;;;6215914;23;20167;-91
2021/12/18 09:37:47;;;;;;;31.80;12.73;;;;;;;;;;6216526;23;20226;-90
2021/12/18 09:40:52;;;;;;;35.03;13.90;;;;;;;;;;6198685;23;20198;-91
2021/12/18 09:43:57;;;;;;;32.40;12.97;;;;;;;;;;6217099;23;20195;-90
2021/12/18 09:47:03;;;;;;;30.60;12.83;;;;;;;;;;6217205;23;20167;-91
2021/12/18 11:21:47;;;;;;;30.20;12.30;;;;;;;;;;6170409;23;20176;-90
2021/12/18 11:24:59;;;;;;;24.70;9.57;;;;;;;;;;6152753;23;20248;-90
2021/12/18 11:28:05;;;;;;;28.07;10.50;;;;;;;;;;6151798;23;20235;-90
2021/12/18 11:31:11;;;;;;;26.00;9.90;;;;;;;;;;6153397;23;20157;-88
2021/12/18 11:34:19;;;;;;;24.63;11.30;;;;;;;;;;6155700;23;20240;-91
2021/12/18 11:37:26;;;;;;;27.17;10.70;;;;;;;;;;6155173;23;20222;-89
2021/12/18 11:40:33;;;;;;;27.73;11.40;;;;;;;;;;6157134;23;20229;-91
2021/12/18 11:43:41;;;;;;;30.17;10.47;;;;;;;;;;6157835;23;20180;-91
2021/12/18 11:46:49;;;;;;;26.73;10.47;;;;;;;;;;6159168;23;20173;-90
2021/12/18 11:49:56;;;;;;;29.30;11.90;;;;;;;;;;6175416;23;20230;-91
2021/12/18 11:53:04;;;;;;;26.80;10.50;;;;;;;;;;6157326;23;20173;-90
2021/12/18 11:56:11;;;;;;;26.37;11.73;;;;;;;;;;6157513;23;20176;-90
2021/12/18 11:59:16;;;;;;;29.30;11.47;;;;;;;;;;6156525;23;20156;-91
2021/12/18 12:02:42;;;;;;;25.67;10.77;;;;;;;;;;6157282;23;20173;-89
2021/12/18 12:05:49;;;;;;;20.60;9.80;;;;;;;;;;6155760;23;20188;-91
2021/12/18 12:09:09;;;;;;;25.30;10.87;;;;;;;;;;6152692;23;20201;-90
2021/12/18 12:12:20;;;;;;;22.10;8.20;;;;;;;;;;6156980;23;20157;-91
2021/12/18 12:15:30;;;;;;;23.57;10.17;;;;;;;;;;6156760;23;20189;-89
2021/12/18 12:18:51;;;;;;;26.37;10.27;;;;;;;;;;6154796;23;20180;-91
2021/12/18 12:21:57;;;;;;;24.07;11.00;;;;;;;;;;6172714;23;20200;-90
2021/12/18 12:25:05;;;;;;;24.07;10.77;;;;;;;;;;6169964;23;20172;-89
2021/12/18 12:28:13;;;;;;;29.23;12.67;;;;;;;;;;6173680;23;20583;-90
2021/12/18 12:31:19;;;;;;;22.77;10.00;;;;;;;;;;6173534;23;20172;-89
2021/12/18 12:34:25;;;;;;;24.37;9.97;;;;;;;;;;6174567;23;20167;-92
2021/12/18 12:37:34;;;;;;;27.77;10.30;;;;;;;;;;6174826;23;20176;-90
2021/12/18 12:40:39;;;;;;;30.00;11.37;;;;;;;;;;6173306;23;20313;-88
2021/12/18 23:17:41;;;;;;;32.30;13.93;;;;;;;;;;6204505;22;20208;-89
2021/12/18 23:20:47;;;;;;;35.70;14.43;;;;;;;;;;6213208;23;20167;-91
2021/12/18 23:23:52;;;;;;;40.13;14.97;;;;;;;;;;6212778;23;20167;-89
2021/12/18 23:26:57;;;;;;;43.63;14.37;;;;;;;;;;6214381;23;20179;-90
2021/12/18 23:30:02;;;;;;;38.27;14.20;;;;;;;;;;6213659;23;20657;-91
2021/12/18 23:33:10;;;;;;;36.73;15.33;;;;;;;;;;6214767;23;20623;-89
2021/12/18 23:36:16;;;;;;;38.87;15.13;;;;;;;;;;6214565;23;20212;-89
2021/12/18 23:39:21;;;;;;;40.87;14.50;;;;;;;;;;6215539;23;20215;-89
2021/12/18 23:42:26;;;;;;;42.80;15.57;;;;;;;;;;6211980;23;20238;-91
2021/12/18 23:48:56;;;;;;;46.60;14.67;;;;;;;;;;6217679;23;20208;-90
2021/12/18 23:52:02;;;;;;;36.53;14.47;;;;;;;;;;6216429;23;20221;-91
2021/12/18 23:55:08;;;;;;;36.90;14.80;;;;;;;;;;6212781;23;20186;-89
2021/12/18 23:58:13;;;;;;;37.87;16.17;;;;;;;;;;6215955;23;20191;-91
